sensor_id;sensor_type;location;lat;lon;timestamp;P1;durP1;ratioP1;P2;durP2;ratioP2
33421;SDS011;19763;55.798;37.782;2023-02-25T00:02:11;32.85;;;21.10;;
33421;SDS011;19763;55.798;37.782;2023-02-25T00:04:37;33.58;;;21.50;;
33421;SDS011;19763;55.798;37.782;2023-02-25T00:07:02;33.70;;;21.90;;
33421;SDS011;19763;55.798;37.782;2023-02-25T00:09:28;34.72;;;22.90;;
33421;SDS011;19763;55.798;37.782;2023-02-25T00:11:54;37.58;;;22.60;;
33421;SDS011;19763;55.798;37.782;2023-02-25T00:14:20;36.50;;;23.08;;
33421;SDS011;19763;55.798;37.782;2023-02-25T00:16:47;35.25;;;22.73;;
33421;SDS011;19763;55.798;37.782;2023-02-25T00:19:13;36.67;;;22.13;;
33421;SDS011;19763;55.798;37.782;2023-02-25T00:21:39;35.95;;;22.27;;
33421;SDS011;19763;55.798;37.782;2023-02-25T00:24:05;40.83;;;23.63;;
33421;SDS011;19763;55.798;37.782;2023-02-25T00:26:30;31.23;;;20.88;;
33421;SDS011;19763;55.798;37.782;2023-02-25T00:28:56;33.65;;;21.73;;
33421;SDS011;19763;55.798;37.782;2023-02-25T00:31:22;33.30;;;20.65;;
33421;SDS011;19763;55.798;37.782;2023-02-25T00:33:49;36.15;;;23.25;;
33421;SDS011;19763;55.798;37.782;2023-02-25T00:36:20;35.28;;;21.50;;
33421;SDS011;19763;55.798;37.782;2023-02-25T00:38:55;33.92;;;22.10;;
33421;SDS011;19763;55.798;37.782;2023-02-25T00:41:22;36.63;;;23.08;;
33421;SDS011;19763;55.798;37.782;2023-02-25T00:44:00;33.63;;;21.88;;
33421;SDS011;19763;55.798;37.782;2023-02-25T00:46:27;32.97;;;21.83;;
33421;SDS011;19763;55.798;37.782;2023-02-25T00:48:54;32.50;;;20.58;;
33421;SDS011;19763;55.798;37.782;2023-02-25T00:51:24;31.73;;;22.08;;
33421;SDS011;19763;55.798;37.782;2023-02-25T00:53:52;34.92;;;22.73;;
33421;SDS011;19763;55.798;37.782;2023-02-25T00:56:19;34.28;;;22.55;;
33421;SDS011;19763;55.798;37.782;2023-02-25T00:58:46;36.03;;;22.58;;
33421;SDS011;19763;55.798;37.782;2023-02-25T01:03:43;38.20;;;23.70;;
33421;SDS011;19763;55.798;37.782;2023-02-25T01:06:08;33.55;;;22.25;;
33421;SDS011;19763;55.798;37.782;2023-02-25T01:08:34;32.47;;;21.27;;
33421;SDS011;19763;55.798;37.782;2023-02-25T01:11:00;32.90;;;21.88;;
33421;SDS011;19763;55.798;37.782;2023-02-25T01:13:33;34.75;;;21.40;;
33421;SDS011;19763;55.798;37.782;2023-02-25T01:15:59;34.85;;;22.42;;
33421;SDS011;19763;55.798;37.782;2023-02-25T01:18:24;33.20;;;22.02;;
33421;SDS011;19763;55.798;37.782;2023-02-25T01:20:50;30.45;;;20.75;;
33421;SDS011;19763;55.798;37.782;2023-02-25T01:23:15;32.55;;;22.48;;
33421;SDS011;19763;55.798;37.782;2023-02-25T01:25:41;34.25;;;21.80;;
33421;SDS011;19763;55.798;37.782;2023-02-25T01:28:06;33.42;;;21.65;;
33421;SDS011;19763;55.798;37.782;2023-02-25T01:30:34;34.08;;;22.65;;
33421;SDS011;19763;55.798;37.782;2023-02-25T01:33:01;33.08;;;21.98;;
33421;SDS011;19763;55.798;37.782;2023-02-25T01:35:26;32.35;;;20.20;;
33421;SDS011;19763;55.798;37.782;2023-02-25T01:37:52;36.15;;;22.90;;
33421;SDS011;19763;55.798;37.782;2023-02-25T01:40:17;29.98;;;20.90;;
33421;SDS011;19763;55.798;37.782;2023-02-25T01:42:44;31.77;;;21.90;;
33421;SDS011;19763;55.798;37.782;2023-02-25T01:47:42;34.15;;;21.25;;
33421;SDS011;19763;55.798;37.782;2023-02-25T01:50:12;34.88;;;22.98;;
33421;SDS011;19763;55.798;37.782;2023-02-25T01:52:38;36.95;;;23.35;;
33421;SDS011;19763;55.798;37.782;2023-02-25T01:55:05;40.55;;;24.13;;
33421;SDS011;19763;55.798;37.782;2023-02-25T01:57:33;35.20;;;22.63;;
33421;SDS011;19763;55.798;37.782;2023-02-25T01:59:59;31.80;;;21.80;;
33421;SDS011;19763;55.798;37.782;2023-02-25T02:02:25;35.97;;;22.92;;
33421;SDS011;19763;55.798;37.782;2023-02-25T02:04:53;32.33;;;21.23;;
33421;SDS011;19763;55.798;37.782;2023-02-25T02:07:20;34.70;;;21.98;;
33421;SDS011;19763;55.798;37.782;2023-02-25T02:09:46;29.58;;;20.33;;
33421;SDS011;19763;55.798;37.782;2023-02-25T02:12:27;32.55;;;21.60;;
33421;SDS011;19763;55.798;37.782;2023-02-25T02:14:55;30.80;;;21.73;;
33421;SDS011;19763;55.798;37.782;2023-02-25T02:20:30;31.42;;;21.50;;
33421;SDS011;19763;55.798;37.782;2023-02-25T02:33:45;32.28;;;21.90;;
33421;SDS011;19763;55.798;37.782;2023-02-25T02:39:17;31.55;;;21.63;;
33421;SDS011;19763;55.798;37.782;2023-02-25T02:44:47;29.92;;;21.08;;
33421;SDS011;19763;55.798;37.782;2023-02-25T02:47:32;30.70;;;20.98;;
33421;SDS011;19763;55.798;37.782;2023-02-25T02:50:08;33.88;;;21.95;;
33421;SDS011;19763;55.798;37.782;2023-02-25T02:52:45;33.10;;;21.63;;
33421;SDS011;19763;55.798;37.782;2023-02-25T02:55:17;32.10;;;21.83;;
33421;SDS011;19763;55.798;37.782;2023-02-25T02:57:47;34.60;;;21.77;;
33421;SDS011;19763;55.798;37.782;2023-02-25T03:00:17;29.98;;;21.52;;
33421;SDS011;19763;55.798;37.782;2023-02-25T03:05:48;30.48;;;20.40;;
33421;SDS011;19763;55.798;37.782;2023-02-25T03:08:19;26.75;;;18.38;;
33421;SDS011;19763;55.798;37.782;2023-02-25T03:13:15;29.95;;;20.60;;
33421;SDS011;19763;55.798;37.782;2023-02-25T03:15:40;30.48;;;21.20;;
33421;SDS011;19763;55.798;37.782;2023-02-25T03:18:16;31.95;;;20.58;;
33421;SDS011;19763;55.798;37.782;2023-02-25T03:20:57;32.38;;;21.98;;
33421;SDS011;19763;55.798;37.782;2023-02-25T03:23:27;32.15;;;20.85;;
33421;SDS011;19763;55.798;37.782;2023-02-25T03:26:11;31.67;;;21.83;;
33421;SDS011;19763;55.798;37.782;2023-02-25T03:28:44;35.90;;;22.50;;
33421;SDS011;19763;55.798;37.782;2023-02-25T03:33:44;28.67;;;19.83;;
33421;SDS011;19763;55.798;37.782;2023-02-25T03:36:48;28.17;;;19.80;;
33421;SDS011;19763;55.798;37.782;2023-02-25T03:39:12;29.02;;;20.13;;
33421;SDS011;19763;55.798;37.782;2023-02-25T03:41:45;34.83;;;21.15;;
33421;SDS011;19763;55.798;37.782;2023-02-25T03:44:15;29.13;;;21.45;;
33421;SDS011;19763;55.798;37.782;2023-02-25T03:46:46;29.50;;;21.00;;
33421;SDS011;19763;55.798;37.782;2023-02-25T03:49:18;29.45;;;19.33;;
33421;SDS011;19763;55.798;37.782;2023-02-25T03:51:54;29.23;;;20.23;;
33421;SDS011;19763;55.798;37.782;2023-02-25T03:54:21;29.60;;;20.35;;
33421;SDS011;19763;55.798;37.782;2023-02-25T03:56:48;27.00;;;19.42;;
33421;SDS011;19763;55.798;37.782;2023-02-25T03:59:15;26.50;;;19.25;;
33421;SDS011;19763;55.798;37.782;2023-02-25T04:01:42;26.10;;;18.65;;
33421;SDS011;19763;55.798;37.782;2023-02-25T04:04:11;28.45;;;18.95;;
33421;SDS011;19763;55.798;37.782;2023-02-25T04:06:37;25.27;;;18.13;;
33421;SDS011;19763;55.798;37.782;2023-02-25T04:09:03;23.67;;;17.88;;
33421;SDS011;19763;55.798;37.782;2023-02-25T04:11:30;27.88;;;19.35;;
33421;SDS011;19763;55.798;37.782;2023-02-25T04:13:56;27.13;;;19.90;;
33421;SDS011;19763;55.798;37.782;2023-02-25T04:16:21;24.25;;;17.73;;
33421;SDS011;19763;55.798;37.782;2023-02-25T04:18:47;27.02;;;19.35;;
33421;SDS011;19763;55.798;37.782;2023-02-25T04:21:21;29.75;;;19.70;;
33421;SDS011;19763;55.798;37.782;2023-02-25T04:23:51;28.95;;;19.05;;
33421;SDS011;19763;55.798;37.782;2023-02-25T04:26:17;26.30;;;18.50;;
33421;SDS011;19763;55.798;37.782;2023-02-25T04:28:43;23.65;;;16.88;;
33421;SDS011;19763;55.798;37.782;2023-02-25T04:31:08;24.40;;;18.77;;
33421;SDS011;19763;55.798;37.782;2023-02-25T04:33:34;28.48;;;18.42;;
33421;SDS011;19763;55.798;37.782;2023-02-25T04:36:00;26.35;;;17.60;;
33421;SDS011;19763;55.798;37.782;2023-02-25T04:38:26;24.55;;;17.65;;
33421;SDS011;19763;55.798;37.782;2023-02-25T04:40:51;25.88;;;17.95;;
33421;SDS011;19763;55.798;37.782;2023-02-25T04:43:17;25.83;;;18.63;;
33421;SDS011;19763;55.798;37.782;2023-02-25T04:45:42;27.73;;;17.83;;
33421;SDS011;19763;55.798;37.782;2023-02-25T04:48:08;27.83;;;18.50;;
33421;SDS011;19763;55.798;37.782;2023-02-25T04:50:34;25.88;;;18.02;;
33421;SDS011;19763;55.798;37.782;2023-02-25T04:52:59;24.85;;;17.55;;
33421;SDS011;19763;55.798;37.782;2023-02-25T04:55:29;25.17;;;18.08;;
33421;SDS011;19763;55.798;37.782;2023-02-25T04:57:54;22.65;;;17.58;;
33421;SDS011;19763;55.798;37.782;2023-02-25T05:00:21;26.05;;;16.98;;
33421;SDS011;19763;55.798;37.782;2023-02-25T05:02:53;21.70;;;16.20;;
33421;SDS011;19763;55.798;37.782;2023-02-25T05:05:20;23.05;;;15.82;;
33421;SDS011;19763;55.798;37.782;2023-02-25T05:07:46;23.60;;;16.40;;
33421;SDS011;19763;55.798;37.782;2023-02-25T05:10:12;24.27;;;18.08;;
33421;SDS011;19763;55.798;37.782;2023-02-25T05:12:39;22.98;;;16.98;;
33421;SDS011;19763;55.798;37.782;2023-02-25T05:15:05;29.80;;;16.48;;
33421;SDS011;19763;55.798;37.782;2023-02-25T05:17:32;24.58;;;16.98;;
33421;SDS011;19763;55.798;37.782;2023-02-25T05:19:59;23.33;;;16.38;;
33421;SDS011;19763;55.798;37.782;2023-02-25T05:22:25;25.98;;;17.23;;
33421;SDS011;19763;55.798;37.782;2023-02-25T05:24:52;22.98;;;16.60;;
33421;SDS011;19763;55.798;37.782;2023-02-25T05:27:17;26.98;;;16.52;;
33421;SDS011;19763;55.798;37.782;2023-02-25T05:29:43;24.38;;;15.85;;
33421;SDS011;19763;55.798;37.782;2023-02-25T05:32:09;23.83;;;16.02;;
33421;SDS011;19763;55.798;37.782;2023-02-25T05:34:34;24.30;;;16.65;;
33421;SDS011;19763;55.798;37.782;2023-02-25T05:37:00;21.05;;;15.57;;
33421;SDS011;19763;55.798;37.782;2023-02-25T05:39:25;23.88;;;16.95;;
33421;SDS011;19763;55.798;37.782;2023-02-25T05:41:51;21.45;;;16.15;;
33421;SDS011;19763;55.798;37.782;2023-02-25T05:44:17;22.63;;;16.80;;
33421;SDS011;19763;55.798;37.782;2023-02-25T05:46:42;23.98;;;15.85;;
33421;SDS011;19763;55.798;37.782;2023-02-25T05:49:08;20.73;;;15.60;;
33421;SDS011;19763;55.798;37.782;2023-02-25T05:51:35;23.33;;;15.23;;
33421;SDS011;19763;55.798;37.782;2023-02-25T05:54:00;28.92;;;16.77;;
33421;SDS011;19763;55.798;37.782;2023-02-25T05:56:26;22.02;;;15.77;;
33421;SDS011;19763;55.798;37.782;2023-02-25T05:58:55;20.00;;;14.65;;
33421;SDS011;19763;55.798;37.782;2023-02-25T06:01:22;21.80;;;16.88;;
33421;SDS011;19763;55.798;37.782;2023-02-25T06:03:51;23.65;;;15.27;;
33421;SDS011;19763;55.798;37.782;2023-02-25T06:06:18;23.48;;;16.25;;
33421;SDS011;19763;55.798;37.782;2023-02-25T06:08:48;23.17;;;15.63;;
33421;SDS011;19763;55.798;37.782;2023-02-25T06:11:16;23.23;;;15.25;;
33421;SDS011;19763;55.798;37.782;2023-02-25T06:13:44;21.13;;;15.68;;
33421;SDS011;19763;55.798;37.782;2023-02-25T06:16:12;22.83;;;16.02;;
33421;SDS011;19763;55.798;37.782;2023-02-25T06:18:38;33.70;;;17.42;;
33421;SDS011;19763;55.798;37.782;2023-02-25T06:21:05;27.25;;;17.00;;
33421;SDS011;19763;55.798;37.782;2023-02-25T06:23:35;23.13;;;16.98;;
33421;SDS011;19763;55.798;37.782;2023-02-25T06:26:02;21.02;;;16.10;;
33421;SDS011;19763;55.798;37.782;2023-02-25T06:28:30;22.02;;;15.85;;
33421;SDS011;19763;55.798;37.782;2023-02-25T06:30:55;21.55;;;15.27;;
33421;SDS011;19763;55.798;37.782;2023-02-25T06:33:21;25.40;;;16.35;;
33421;SDS011;19763;55.798;37.782;2023-02-25T06:35:50;25.05;;;16.63;;
33421;SDS011;19763;55.798;37.782;2023-02-25T06:38:16;21.55;;;15.48;;
33421;SDS011;19763;55.798;37.782;2023-02-25T06:40:42;19.15;;;15.80;;
33421;SDS011;19763;55.798;37.782;2023-02-25T06:43:08;21.42;;;15.75;;
33421;SDS011;19763;55.798;37.782;2023-02-25T06:45:34;23.67;;;15.98;;
33421;SDS011;19763;55.798;37.782;2023-02-25T06:48:00;20.20;;;15.20;;
33421;SDS011;19763;55.798;37.782;2023-02-25T06:50:26;24.02;;;16.73;;
33421;SDS011;19763;55.798;37.782;2023-02-25T06:52:52;21.30;;;14.63;;
33421;SDS011;19763;55.798;37.782;2023-02-25T06:55:17;18.48;;;14.75;;
33421;SDS011;19763;55.798;37.782;2023-02-25T06:57:43;19.67;;;14.07;;
33421;SDS011;19763;55.798;37.782;2023-02-25T07:00:09;19.63;;;14.25;;
33421;SDS011;19763;55.798;37.782;2023-02-25T07:02:35;23.52;;;14.52;;
33421;SDS011;19763;55.798;37.782;2023-02-25T07:05:00;20.65;;;14.15;;
33421;SDS011;19763;55.798;37.782;2023-02-25T07:07:28;17.55;;;13.90;;
33421;SDS011;19763;55.798;37.782;2023-02-25T07:09:53;18.27;;;13.68;;
33421;SDS011;19763;55.798;37.782;2023-02-25T07:12:19;17.17;;;13.05;;
33421;SDS011;19763;55.798;37.782;2023-02-25T07:14:45;17.40;;;13.30;;
33421;SDS011;19763;55.798;37.782;2023-02-25T07:17:10;18.98;;;13.40;;
33421;SDS011;19763;55.798;37.782;2023-02-25T07:19:36;18.48;;;12.27;;
33421;SDS011;19763;55.798;37.782;2023-02-25T07:22:02;20.98;;;13.15;;
33421;SDS011;19763;55.798;37.782;2023-02-25T07:24:27;16.13;;;12.35;;
33421;SDS011;19763;55.798;37.782;2023-02-25T07:26:53;17.85;;;12.25;;
33421;SDS011;19763;55.798;37.782;2023-02-25T07:29:19;16.48;;;11.77;;
33421;SDS011;19763;55.798;37.782;2023-02-25T07:31:46;18.00;;;11.98;;
33421;SDS011;19763;55.798;37.782;2023-02-25T07:34:11;19.83;;;11.93;;
33421;SDS011;19763;55.798;37.782;2023-02-25T07:36:38;16.10;;;12.45;;
33421;SDS011;19763;55.798;37.782;2023-02-25T07:39:05;17.58;;;11.98;;
33421;SDS011;19763;55.798;37.782;2023-02-25T07:41:33;20.08;;;11.68;;
33421;SDS011;19763;55.798;37.782;2023-02-25T07:44:00;16.85;;;12.00;;
33421;SDS011;19763;55.798;37.782;2023-02-25T07:46:25;17.70;;;11.43;;
33421;SDS011;19763;55.798;37.782;2023-02-25T07:48:51;16.80;;;11.35;;
33421;SDS011;19763;55.798;37.782;2023-02-25T07:51:18;14.65;;;11.05;;
33421;SDS011;19763;55.798;37.782;2023-02-25T07:53:46;14.57;;;11.00;;
33421;SDS011;19763;55.798;37.782;2023-02-25T07:56:13;13.98;;;10.65;;
33421;SDS011;19763;55.798;37.782;2023-02-25T07:58:40;14.15;;;10.65;;
33421;SDS011;19763;55.798;37.782;2023-02-25T08:01:10;15.27;;;10.85;;
33421;SDS011;19763;55.798;37.782;2023-02-25T08:03:40;15.27;;;10.15;;
33421;SDS011;19763;55.798;37.782;2023-02-25T08:06:06;17.67;;;11.68;;
33421;SDS011;19763;55.798;37.782;2023-02-25T08:08:33;13.32;;;10.45;;
33421;SDS011;19763;55.798;37.782;2023-02-25T08:11:03;15.50;;;10.75;;
33421;SDS011;19763;55.798;37.782;2023-02-25T08:13:30;13.90;;;10.30;;
33421;SDS011;19763;55.798;37.782;2023-02-25T08:15:56;15.52;;;10.40;;
33421;SDS011;19763;55.798;37.782;2023-02-25T08:18:21;17.42;;;10.55;;
33421;SDS011;19763;55.798;37.782;2023-02-25T08:20:47;14.10;;;10.43;;
33421;SDS011;19763;55.798;37.782;2023-02-25T08:23:13;14.48;;;10.95;;
33421;SDS011;19763;55.798;37.782;2023-02-25T08:25:38;14.52;;;10.15;;
33421;SDS011;19763;55.798;37.782;2023-02-25T08:28:04;13.77;;;10.23;;
33421;SDS011;19763;55.798;37.782;2023-02-25T08:30:30;17.40;;;10.85;;
33421;SDS011;19763;55.798;37.782;2023-02-25T08:32:56;14.65;;;10.30;;
33421;SDS011;19763;55.798;37.782;2023-02-25T08:35:22;13.25;;;9.90;;
33421;SDS011;19763;55.798;37.782;2023-02-25T08:37:50;15.27;;;10.30;;
33421;SDS011;19763;55.798;37.782;2023-02-25T08:40:19;12.55;;;9.77;;
33421;SDS011;19763;55.798;37.782;2023-02-25T08:42:46;15.88;;;10.35;;
33421;SDS011;19763;55.798;37.782;2023-02-25T08:45:12;14.75;;;9.75;;
33421;SDS011;19763;55.798;37.782;2023-02-25T08:47:37;14.45;;;9.93;;
33421;SDS011;19763;55.798;37.782;2023-02-25T08:50:03;13.80;;;9.15;;
33421;SDS011;19763;55.798;37.782;2023-02-25T08:52:29;12.27;;;9.52;;
33421;SDS011;19763;55.798;37.782;2023-02-25T08:55:01;16.88;;;10.20;;
33421;SDS011;19763;55.798;37.782;2023-02-25T08:57:28;13.63;;;9.52;;
33421;SDS011;19763;55.798;37.782;2023-02-25T08:59:54;13.77;;;9.27;;
33421;SDS011;19763;55.798;37.782;2023-02-25T09:02:20;14.43;;;9.60;;
33421;SDS011;19763;55.798;37.782;2023-02-25T09:04:45;13.85;;;9.10;;
33421;SDS011;19763;55.798;37.782;2023-02-25T09:07:11;13.18;;;9.57;;
33421;SDS011;19763;55.798;37.782;2023-02-25T09:09:40;13.50;;;9.40;;
33421;SDS011;19763;55.798;37.782;2023-02-25T09:12:06;10.73;;;8.68;;
33421;SDS011;19763;55.798;37.782;2023-02-25T09:14:33;13.88;;;9.50;;
33421;SDS011;19763;55.798;37.782;2023-02-25T09:17:02;16.83;;;9.82;;
33421;SDS011;19763;55.798;37.782;2023-02-25T09:19:29;12.30;;;9.25;;
33421;SDS011;19763;55.798;37.782;2023-02-25T09:21:55;11.25;;;9.13;;
33421;SDS011;19763;55.798;37.782;2023-02-25T09:24:21;18.90;;;9.18;;
33421;SDS011;19763;55.798;37.782;2023-02-25T09:26:46;10.63;;;8.70;;
33421;SDS011;19763;55.798;37.782;2023-02-25T09:29:12;11.25;;;8.40;;
33421;SDS011;19763;55.798;37.782;2023-02-25T09:31:37;17.42;;;9.50;;
33421;SDS011;19763;55.798;37.782;2023-02-25T09:34:05;11.52;;;8.07;;
33421;SDS011;19763;55.798;37.782;2023-02-25T09:36:33;12.05;;;8.32;;
33421;SDS011;19763;55.798;37.782;2023-02-25T09:38:59;12.85;;;8.65;;
33421;SDS011;19763;55.798;37.782;2023-02-25T09:46:41;13.65;;;8.32;;
33421;SDS011;19763;55.798;37.782;2023-02-25T09:52:19;11.85;;;7.90;;
33421;SDS011;19763;55.798;37.782;2023-02-25T09:54:58;16.27;;;8.02;;
33421;SDS011;19763;55.798;37.782;2023-02-25T09:57:30;11.15;;;7.88;;
33421;SDS011;19763;55.798;37.782;2023-02-25T10:00:02;9.88;;;7.80;;
33421;SDS011;19763;55.798;37.782;2023-02-25T10:02:37;11.95;;;7.95;;
33421;SDS011;19763;55.798;37.782;2023-02-25T10:10:59;10.32;;;7.28;;
33421;SDS011;19763;55.798;37.782;2023-02-25T10:13:40;15.10;;;7.65;;
33421;SDS011;19763;55.798;37.782;2023-02-25T10:16:45;9.23;;;6.75;;
33421;SDS011;19763;55.798;37.782;2023-02-25T10:19:26;9.68;;;6.88;;
33421;SDS011;19763;55.798;37.782;2023-02-25T10:22:25;10.30;;;7.30;;
33421;SDS011;19763;55.798;37.782;2023-02-25T10:25:01;11.45;;;6.78;;
33421;SDS011;19763;55.798;37.782;2023-02-25T10:27:36;10.80;;;7.18;;
33421;SDS011;19763;55.798;37.782;2023-02-25T10:30:09;8.98;;;6.78;;
33421;SDS011;19763;55.798;37.782;2023-02-25T10:32:59;10.60;;;7.47;;
33421;SDS011;19763;55.798;37.782;2023-02-25T10:35:31;13.02;;;7.63;;
33421;SDS011;19763;55.798;37.782;2023-02-25T10:37:58;11.70;;;6.88;;
33421;SDS011;19763;55.798;37.782;2023-02-25T10:40:24;9.60;;;7.10;;
33421;SDS011;19763;55.798;37.782;2023-02-25T10:42:54;11.82;;;7.03;;
33421;SDS011;19763;55.798;37.782;2023-02-25T10:45:28;10.30;;;8.02;;
33421;SDS011;19763;55.798;37.782;2023-02-25T10:50:42;13.32;;;7.65;;
33421;SDS011;19763;55.798;37.782;2023-02-25T10:53:31;15.05;;;7.85;;
33421;SDS011;19763;55.798;37.782;2023-02-25T10:55:58;16.60;;;8.45;;
33421;SDS011;19763;55.798;37.782;2023-02-25T10:58:26;12.45;;;8.25;;
33421;SDS011;19763;55.798;37.782;2023-02-25T11:03:28;15.57;;;8.35;;
33421;SDS011;19763;55.798;37.782;2023-02-25T11:06:12;14.05;;;8.15;;
33421;SDS011;19763;55.798;37.782;2023-02-25T11:08:43;13.77;;;8.35;;
33421;SDS011;19763;55.798;37.782;2023-02-25T11:11:19;10.38;;;7.43;;
33421;SDS011;19763;55.798;37.782;2023-02-25T11:14:24;17.20;;;8.30;;
33421;SDS011;19763;55.798;37.782;2023-02-25T11:16:41;11.88;;;7.55;;
33421;SDS011;19763;55.798;37.782;2023-02-25T11:19:12;11.75;;;8.40;;
33421;SDS011;19763;55.798;37.782;2023-02-25T11:21:42;10.27;;;7.88;;
33421;SDS011;19763;55.798;37.782;2023-02-25T11:24:15;14.00;;;8.48;;
33421;SDS011;19763;55.798;37.782;2023-02-25T11:27:02;11.63;;;7.85;;
33421;SDS011;19763;55.798;37.782;2023-02-25T11:29:31;16.00;;;8.98;;
33421;SDS011;19763;55.798;37.782;2023-02-25T11:32:10;11.52;;;8.35;;
33421;SDS011;19763;55.798;37.782;2023-02-25T11:34:43;8.85;;;7.47;;
33421;SDS011;19763;55.798;37.782;2023-02-25T11:37:23;12.63;;;8.35;;
33421;SDS011;19763;55.798;37.782;2023-02-25T11:40:31;10.60;;;8.25;;
33421;SDS011;19763;55.798;37.782;2023-02-25T11:42:59;11.75;;;7.97;;
33421;SDS011;19763;55.798;37.782;2023-02-25T11:45:26;12.38;;;7.85;;
33421;SDS011;19763;55.798;37.782;2023-02-25T11:47:55;14.10;;;8.13;;
33421;SDS011;19763;55.798;37.782;2023-02-25T11:50:25;11.98;;;8.50;;
33421;SDS011;19763;55.798;37.782;2023-02-25T11:53:02;11.77;;;7.85;;
33421;SDS011;19763;55.798;37.782;2023-02-25T12:06:48;9.10;;;7.15;;
33421;SDS011;19763;55.798;37.782;2023-02-25T12:12:11;7.55;;;6.65;;
33421;SDS011;19763;55.798;37.782;2023-02-25T12:25:42;7.88;;;6.18;;
33421;SDS011;19763;55.798;37.782;2023-02-25T12:39:45;11.35;;;8.13;;
33421;SDS011;19763;55.798;37.782;2023-02-25T12:45:05;10.63;;;7.55;;
33421;SDS011;19763;55.798;37.782;2023-02-25T12:47:53;15.07;;;8.30;;
33421;SDS011;19763;55.798;37.782;2023-02-25T13:04:41;10.40;;;7.55;;
33421;SDS011;19763;55.798;37.782;2023-02-25T13:24:16;9.98;;;6.95;;
33421;SDS011;19763;55.798;37.782;2023-02-25T13:39:05;11.43;;;8.18;;
33421;SDS011;19763;55.798;37.782;2023-02-25T13:42:06;11.45;;;8.40;;
33421;SDS011;19763;55.798;37.782;2023-02-25T13:44:53;10.10;;;8.77;;
33421;SDS011;19763;55.798;37.782;2023-02-25T13:53:33;11.35;;;9.27;;
33421;SDS011;19763;55.798;37.782;2023-02-25T14:05:11;14.32;;;10.10;;
33421;SDS011;19763;55.798;37.782;2023-02-25T14:10:30;13.40;;;10.57;;
33421;SDS011;19763;55.798;37.782;2023-02-25T14:24:00;15.98;;;11.05;;
33421;SDS011;19763;55.798;37.782;2023-02-25T14:37:37;18.80;;;12.73;;
33421;SDS011;19763;55.798;37.782;2023-02-25T14:40:27;17.52;;;14.00;;
33421;SDS011;19763;55.798;37.782;2023-02-25T14:43:02;17.33;;;12.82;;
33421;SDS011;19763;55.798;37.782;2023-02-25T14:45:33;19.67;;;14.35;;
33421;SDS011;19763;55.798;37.782;2023-02-25T14:48:05;23.30;;;15.73;;
33421;SDS011;19763;55.798;37.782;2023-02-25T14:50:45;22.45;;;16.42;;
33421;SDS011;19763;55.798;37.782;2023-02-25T15:13:36;22.02;;;15.88;;
33421;SDS011;19763;55.798;37.782;2023-02-25T15:27:51;18.38;;;13.93;;
33421;SDS011;19763;55.798;37.782;2023-02-25T15:30:24;18.27;;;12.57;;
33421;SDS011;19763;55.798;37.782;2023-02-25T15:33:26;16.20;;;11.82;;
33421;SDS011;19763;55.798;37.782;2023-02-25T15:38:18;16.58;;;11.75;;
33421;SDS011;19763;55.798;37.782;2023-02-25T15:40:48;15.27;;;11.65;;
33421;SDS011;19763;55.798;37.782;2023-02-25T15:45:44;15.55;;;11.52;;
33421;SDS011;19763;55.798;37.782;2023-02-25T15:55:48;17.70;;;11.77;;
33421;SDS011;19763;55.798;37.782;2023-02-25T16:05:51;17.60;;;12.35;;
33421;SDS011;19763;55.798;37.782;2023-02-25T16:08:23;17.45;;;12.10;;
33421;SDS011;19763;55.798;37.782;2023-02-25T16:10:53;16.60;;;12.43;;
33421;SDS011;19763;55.798;37.782;2023-02-25T16:13:28;15.73;;;12.95;;
33421;SDS011;19763;55.798;37.782;2023-02-25T16:15:56;18.65;;;12.73;;
33421;SDS011;19763;55.798;37.782;2023-02-25T16:21:05;21.00;;;13.73;;
33421;SDS011;19763;55.798;37.782;2023-02-25T16:23:38;16.60;;;12.82;;
33421;SDS011;19763;55.798;37.782;2023-02-25T16:31:20;15.25;;;12.00;;
33421;SDS011;19763;55.798;37.782;2023-02-25T16:37:11;15.85;;;13.18;;
33421;SDS011;19763;55.798;37.782;2023-02-25T16:39:47;15.10;;;12.43;;
33421;SDS011;19763;55.798;37.782;2023-02-25T16:42:14;17.08;;;13.73;;
33421;SDS011;19763;55.798;37.782;2023-02-25T16:44:45;18.33;;;13.48;;
33421;SDS011;19763;55.798;37.782;2023-02-25T16:49:46;18.33;;;13.57;;
33421;SDS011;19763;55.798;37.782;2023-02-25T16:52:17;17.83;;;13.32;;
33421;SDS011;19763;55.798;37.782;2023-02-25T16:55:05;15.98;;;13.65;;
33421;SDS011;19763;55.798;37.782;2023-02-25T16:57:34;19.10;;;14.88;;
33421;SDS011;19763;55.798;37.782;2023-02-25T17:00:11;17.80;;;13.80;;
33421;SDS011;19763;55.798;37.782;2023-02-25T17:02:48;17.63;;;13.32;;
33421;SDS011;19763;55.798;37.782;2023-02-25T17:05:26;19.60;;;14.40;;
33421;SDS011;19763;55.798;37.782;2023-02-25T17:08:01;20.67;;;15.40;;
33421;SDS011;19763;55.798;37.782;2023-02-25T17:10:42;19.58;;;15.57;;
33421;SDS011;19763;55.798;37.782;2023-02-25T17:13:15;18.55;;;15.00;;
33421;SDS011;19763;55.798;37.782;2023-02-25T17:15:47;19.75;;;15.70;;
33421;SDS011;19763;55.798;37.782;2023-02-25T17:21:00;18.98;;;15.75;;
33421;SDS011;19763;55.798;37.782;2023-02-25T17:23:28;20.75;;;15.75;;
33421;SDS011;19763;55.798;37.782;2023-02-25T17:25:55;23.27;;;16.73;;
33421;SDS011;19763;55.798;37.782;2023-02-25T17:28:24;22.05;;;17.30;;
33421;SDS011;19763;55.798;37.782;2023-02-25T17:31:02;22.27;;;17.05;;
33421;SDS011;19763;55.798;37.782;2023-02-25T17:33:32;22.88;;;17.20;;
33421;SDS011;19763;55.798;37.782;2023-02-25T17:36:01;23.88;;;17.63;;
33421;SDS011;19763;55.798;37.782;2023-02-25T17:38:35;26.73;;;17.92;;
33421;SDS011;19763;55.798;37.782;2023-02-25T17:41:01;23.85;;;17.65;;
33421;SDS011;19763;55.798;37.782;2023-02-25T17:43:37;24.45;;;17.90;;
33421;SDS011;19763;55.798;37.782;2023-02-25T17:46:13;24.58;;;17.55;;
33421;SDS011;19763;55.798;37.782;2023-02-25T17:48:39;25.52;;;17.80;;
33421;SDS011;19763;55.798;37.782;2023-02-25T17:51:07;24.00;;;18.02;;
33421;SDS011;19763;55.798;37.782;2023-02-25T17:53:37;25.85;;;19.45;;
33421;SDS011;19763;55.798;37.782;2023-02-25T17:56:20;25.65;;;18.58;;
33421;SDS011;19763;55.798;37.782;2023-02-25T17:58:59;27.48;;;19.92;;
33421;SDS011;19763;55.798;37.782;2023-02-25T18:01:28;27.80;;;20.13;;
33421;SDS011;19763;55.798;37.782;2023-02-25T18:03:56;28.83;;;20.88;;
33421;SDS011;19763;55.798;37.782;2023-02-25T18:06:28;29.65;;;21.17;;
33421;SDS011;19763;55.798;37.782;2023-02-25T18:08:55;30.48;;;19.88;;
33421;SDS011;19763;55.798;37.782;2023-02-25T18:11:24;33.70;;;21.70;;
33421;SDS011;19763;55.798;37.782;2023-02-25T18:13:52;31.60;;;21.40;;
33421;SDS011;19763;55.798;37.782;2023-02-25T18:16:26;31.58;;;21.95;;
33421;SDS011;19763;55.798;37.782;2023-02-25T18:18:53;32.20;;;22.75;;
33421;SDS011;19763;55.798;37.782;2023-02-25T18:21:19;60.75;;;39.80;;
33421;SDS011;19763;55.798;37.782;2023-02-25T18:23:46;29.63;;;20.25;;
33421;SDS011;19763;55.798;37.782;2023-02-25T18:26:18;32.72;;;22.08;;
33421;SDS011;19763;55.798;37.782;2023-02-25T18:28:48;33.00;;;22.17;;
33421;SDS011;19763;55.798;37.782;2023-02-25T18:31:19;32.55;;;22.98;;